sensor_id;sensor_type;location;lat;lon;timestamp;P1;durP1;ratioP1;P2;durP2;ratioP2
7843;SDS011;3967;48.702;9.326;2022-07-10T00:00:02;2.53;;;2.20;;
7843;SDS011;3967;48.702;9.326;2022-07-10T00:02:30;2.80;;;2.43;;
7843;SDS011;3967;48.702;9.326;2022-07-10T00:04:57;2.40;;;2.20;;
7843;SDS011;3967;48.702;9.326;2022-07-10T00:07:23;2.33;;;2.23;;
7843;SDS011;3967;48.702;9.326;2022-07-10T00:09:50;3.27;;;2.50;;
7843;SDS011;3967;48.702;9.326;2022-07-10T00:12:17;2.77;;;2.57;;
7843;SDS011;3967;48.702;9.326;2022-07-10T00:14:43;2.87;;;2.67;;
7843;SDS011;3967;48.702;9.326;2022-07-10T00:17:10;2.90;;;2.70;;
7843;SDS011;3967;48.702;9.326;2022-07-10T00:19:37;3.00;;;2.63;;
7843;SDS011;3967;48.702;9.326;2022-07-10T00:22:04;2.60;;;2.40;;
7843;SDS011;3967;48.702;9.326;2022-07-10T00:24:30;3.00;;;2.60;;
7843;SDS011;3967;48.702;9.326;2022-07-10T00:26:58;2.60;;;2.40;;
7843;SDS011;3967;48.702;9.326;2022-07-10T00:29:25;2.40;;;2.30;;
7843;SDS011;3967;48.702;9.326;2022-07-10T00:31:52;3.33;;;3.03;;
7843;SDS011;3967;48.702;9.326;2022-07-10T00:34:19;3.03;;;2.50;;
7843;SDS011;3967;48.702;9.326;2022-07-10T00:36:45;3.57;;;2.60;;
7843;SDS011;3967;48.702;9.326;2022-07-10T00:39:13;2.70;;;2.50;;
7843;SDS011;3967;48.702;9.326;2022-07-10T00:41:39;4.13;;;2.50;;
7843;SDS011;3967;48.702;9.326;2022-07-10T00:44:06;3.47;;;2.37;;
7843;SDS011;3967;48.702;9.326;2022-07-10T00:46:33;2.83;;;2.57;;
7843;SDS011;3967;48.702;9.326;2022-07-10T00:49:00;2.60;;;2.40;;
7843;SDS011;3967;48.702;9.326;2022-07-10T00:51:28;3.97;;;2.70;;
7843;SDS011;3967;48.702;9.326;2022-07-10T00:53:56;2.43;;;2.23;;
7843;SDS011;3967;48.702;9.326;2022-07-10T00:56:24;3.20;;;2.47;;
7843;SDS011;3967;48.702;9.326;2022-07-10T00:58:52;4.10;;;2.90;;
7843;SDS011;3967;48.702;9.326;2022-07-10T01:01:19;2.93;;;2.70;;
7843;SDS011;3967;48.702;9.326;2022-07-10T01:03:49;2.80;;;2.20;;
7843;SDS011;3967;48.702;9.326;2022-07-10T01:06:17;2.83;;;2.27;;
7843;SDS011;3967;48.702;9.326;2022-07-10T01:08:44;4.13;;;2.70;;
7843;SDS011;3967;48.702;9.326;2022-07-10T01:11:12;2.20;;;2.10;;
7843;SDS011;3967;48.702;9.326;2022-07-10T01:13:40;2.83;;;2.10;;
7843;SDS011;3967;48.702;9.326;2022-07-10T01:16:09;3.10;;;2.27;;
7843;SDS011;3967;48.702;9.326;2022-07-10T01:18:36;7.13;;;2.30;;
7843;SDS011;3967;48.702;9.326;2022-07-10T01:21:03;2.67;;;2.50;;
7843;SDS011;3967;48.702;9.326;2022-07-10T01:23:30;2.83;;;2.53;;
7843;SDS011;3967;48.702;9.326;2022-07-10T01:25:57;6.27;;;2.90;;
7843;SDS011;3967;48.702;9.326;2022-07-10T01:28:24;2.80;;;2.60;;
7843;SDS011;3967;48.702;9.326;2022-07-10T01:30:54;4.00;;;2.90;;
7843;SDS011;3967;48.702;9.326;2022-07-10T01:33:21;5.00;;;2.50;;
7843;SDS011;3967;48.702;9.326;2022-07-10T01:35:48;2.80;;;2.60;;
7843;SDS011;3967;48.702;9.326;2022-07-10T01:38:15;4.17;;;2.70;;
7843;SDS011;3967;48.702;9.326;2022-07-10T01:40:41;3.67;;;2.37;;
7843;SDS011;3967;48.702;9.326;2022-07-10T01:43:08;3.07;;;2.77;;
7843;SDS011;3967;48.702;9.326;2022-07-10T01:45:35;3.93;;;2.83;;
7843;SDS011;3967;48.702;9.326;2022-07-10T01:48:01;4.43;;;3.10;;
7843;SDS011;3967;48.702;9.326;2022-07-10T01:50:28;4.50;;;3.00;;
7843;SDS011;3967;48.702;9.326;2022-07-10T01:52:55;3.30;;;2.97;;
7843;SDS011;3967;48.702;9.326;2022-07-10T01:55:22;3.40;;;3.13;;
7843;SDS011;3967;48.702;9.326;2022-07-10T01:57:48;3.23;;;2.93;;
7843;SDS011;3967;48.702;9.326;2022-07-10T02:00:15;2.83;;;2.60;;
7843;SDS011;3967;48.702;9.326;2022-07-10T02:02:42;3.80;;;3.60;;
7843;SDS011;3967;48.702;9.326;2022-07-10T02:05:29;3.37;;;3.07;;
7843;SDS011;3967;48.702;9.326;2022-07-10T02:07:56;3.30;;;2.90;;
7843;SDS011;3967;48.702;9.326;2022-07-10T02:10:22;4.60;;;2.63;;
7843;SDS011;3967;48.702;9.326;2022-07-10T02:12:49;2.93;;;2.73;;
7843;SDS011;3967;48.702;9.326;2022-07-10T02:15:16;2.80;;;2.50;;
7843;SDS011;3967;48.702;9.326;2022-07-10T02:17:42;3.03;;;2.57;;
7843;SDS011;3967;48.702;9.326;2022-07-10T02:20:09;2.60;;;2.40;;
7843;SDS011;3967;48.702;9.326;2022-07-10T02:22:37;3.37;;;2.37;;
7843;SDS011;3967;48.702;9.326;2022-07-10T02:25:03;3.13;;;2.50;;
7843;SDS011;3967;48.702;9.326;2022-07-10T02:27:31;2.90;;;2.30;;
7843;SDS011;3967;48.702;9.326;2022-07-10T02:29:57;6.00;;;2.63;;
7843;SDS011;3967;48.702;9.326;2022-07-10T02:32:24;2.57;;;2.37;;
7843;SDS011;3967;48.702;9.326;2022-07-10T02:34:51;4.30;;;2.60;;
7843;SDS011;3967;48.702;9.326;2022-07-10T02:37:18;5.57;;;2.50;;
7843;SDS011;3967;48.702;9.326;2022-07-10T02:39:44;4.03;;;3.10;;
7843;SDS011;3967;48.702;9.326;2022-07-10T02:42:11;3.30;;;3.10;;
7843;SDS011;3967;48.702;9.326;2022-07-10T02:44:38;3.50;;;3.20;;
7843;SDS011;3967;48.702;9.326;2022-07-10T02:47:05;3.87;;;3.57;;
7843;SDS011;3967;48.702;9.326;2022-07-10T02:49:32;3.80;;;3.50;;
7843;SDS011;3967;48.702;9.326;2022-07-10T02:51:59;4.10;;;3.70;;
7843;SDS011;3967;48.702;9.326;2022-07-10T02:54:26;4.13;;;3.67;;
7843;SDS011;3967;48.702;9.326;2022-07-10T02:56:52;4.57;;;4.23;;
7843;SDS011;3967;48.702;9.326;2022-07-10T02:59:19;5.10;;;3.70;;
7843;SDS011;3967;48.702;9.326;2022-07-10T03:01:46;3.80;;;3.50;;
7843;SDS011;3967;48.702;9.326;2022-07-10T03:04:13;4.00;;;3.57;;
7843;SDS011;3967;48.702;9.326;2022-07-10T03:06:40;4.73;;;4.27;;
7843;SDS011;3967;48.702;9.326;2022-07-10T03:09:06;4.23;;;3.83;;
7843;SDS011;3967;48.702;9.326;2022-07-10T03:11:33;4.40;;;4.10;;
7843;SDS011;3967;48.702;9.326;2022-07-10T03:14:00;5.10;;;4.30;;
7843;SDS011;3967;48.702;9.326;2022-07-10T03:16:26;4.73;;;4.33;;
7843;SDS011;3967;48.702;9.326;2022-07-10T03:18:53;7.37;;;5.23;;
7843;SDS011;3967;48.702;9.326;2022-07-10T03:21:20;7.07;;;5.43;;
7843;SDS011;3967;48.702;9.326;2022-07-10T03:23:47;5.93;;;5.10;;
7843;SDS011;3967;48.702;9.326;2022-07-10T03:26:13;5.80;;;4.80;;
7843;SDS011;3967;48.702;9.326;2022-07-10T03:28:40;5.00;;;4.30;;
7843;SDS011;3967;48.702;9.326;2022-07-10T03:31:08;4.87;;;4.47;;
7843;SDS011;3967;48.702;9.326;2022-07-10T03:33:34;7.17;;;4.97;;
7843;SDS011;3967;48.702;9.326;2022-07-10T03:36:01;5.87;;;5.10;;
7843;SDS011;3967;48.702;9.326;2022-07-10T03:38:29;7.10;;;4.77;;
7843;SDS011;3967;48.702;9.326;2022-07-10T03:40:56;5.20;;;4.80;;
7843;SDS011;3967;48.702;9.326;2022-07-10T03:43:23;5.07;;;4.40;;
7843;SDS011;3967;48.702;9.326;2022-07-10T03:45:50;5.93;;;5.40;;
7843;SDS011;3967;48.702;9.326;2022-07-10T03:48:17;6.63;;;4.60;;
7843;SDS011;3967;48.702;9.326;2022-07-10T03:50:44;5.93;;;4.73;;
7843;SDS011;3967;48.702;9.326;2022-07-10T03:53:11;5.30;;;4.80;;
7843;SDS011;3967;48.702;9.326;2022-07-10T03:55:38;5.00;;;4.60;;
7843;SDS011;3967;48.702;9.326;2022-07-10T03:58:05;4.90;;;4.60;;
7843;SDS011;3967;48.702;9.326;2022-07-10T04:00:31;5.00;;;4.10;;
7843;SDS011;3967;48.702;9.326;2022-07-10T04:02:59;4.83;;;4.33;;
7843;SDS011;3967;48.702;9.326;2022-07-10T04:05:30;5.93;;;4.50;;
7843;SDS011;3967;48.702;9.326;2022-07-10T04:07:58;5.10;;;4.60;;
7843;SDS011;3967;48.702;9.326;2022-07-10T04:10:26;4.80;;;4.30;;
7843;SDS011;3967;48.702;9.326;2022-07-10T04:12:54;4.90;;;4.40;;
7843;SDS011;3967;48.702;9.326;2022-07-10T04:15:21;4.67;;;4.37;;
7843;SDS011;3967;48.702;9.326;2022-07-10T04:17:48;5.63;;;4.13;;
7843;SDS011;3967;48.702;9.326;2022-07-10T04:20:15;6.87;;;4.73;;
7843;SDS011;3967;48.702;9.326;2022-07-10T04:22:43;4.37;;;4.07;;
7843;SDS011;3967;48.702;9.326;2022-07-10T04:25:10;4.37;;;4.00;;
7843;SDS011;3967;48.702;9.326;2022-07-10T04:27:38;5.87;;;4.47;;
7843;SDS011;3967;48.702;9.326;2022-07-10T04:30:05;4.90;;;4.50;;
7843;SDS011;3967;48.702;9.326;2022-07-10T04:32:33;4.73;;;4.27;;
7843;SDS011;3967;48.702;9.326;2022-07-10T04:34:59;4.70;;;4.30;;
7843;SDS011;3967;48.702;9.326;2022-07-10T04:37:27;5.40;;;5.00;;
7843;SDS011;3967;48.702;9.326;2022-07-10T04:39:55;5.20;;;4.80;;
7843;SDS011;3967;48.702;9.326;2022-07-10T04:42:24;5.57;;;5.07;;
7843;SDS011;3967;48.702;9.326;2022-07-10T04:44:52;6.37;;;4.57;;
7843;SDS011;3967;48.702;9.326;2022-07-10T04:47:18;6.10;;;5.50;;
7843;SDS011;3967;48.702;9.326;2022-07-10T04:49:45;4.70;;;4.30;;
7843;SDS011;3967;48.702;9.326;2022-07-10T04:52:12;4.77;;;4.20;;
7843;SDS011;3967;48.702;9.326;2022-07-10T04:54:38;5.00;;;4.50;;
7843;SDS011;3967;48.702;9.326;2022-07-10T04:57:05;5.13;;;4.70;;
7843;SDS011;3967;48.702;9.326;2022-07-10T04:59:32;6.50;;;4.70;;
7843;SDS011;3967;48.702;9.326;2022-07-10T05:01:59;5.07;;;4.57;;
7843;SDS011;3967;48.702;9.326;2022-07-10T05:04:25;5.20;;;4.77;;
7843;SDS011;3967;48.702;9.326;2022-07-10T05:06:52;4.50;;;4.10;;
7843;SDS011;3967;48.702;9.326;2022-07-10T05:09:19;4.40;;;4.10;;
7843;SDS011;3967;48.702;9.326;2022-07-10T05:11:46;4.60;;;4.20;;
7843;SDS011;3967;48.702;9.326;2022-07-10T05:14:13;5.57;;;4.30;;
7843;SDS011;3967;48.702;9.326;2022-07-10T05:16:40;6.27;;;4.20;;
7843;SDS011;3967;48.702;9.326;2022-07-10T05:19:07;3.90;;;3.40;;
7843;SDS011;3967;48.702;9.326;2022-07-10T05:21:33;4.40;;;4.00;;
7843;SDS011;3967;48.702;9.326;2022-07-10T05:24:00;4.30;;;3.90;;
7843;SDS011;3967;48.702;9.326;2022-07-10T05:26:27;4.13;;;3.70;;
7843;SDS011;3967;48.702;9.326;2022-07-10T05:28:54;4.23;;;3.57;;
7843;SDS011;3967;48.702;9.326;2022-07-10T05:31:20;3.50;;;3.10;;
7843;SDS011;3967;48.702;9.326;2022-07-10T05:33:47;4.33;;;3.13;;
7843;SDS011;3967;48.702;9.326;2022-07-10T05:36:14;2.97;;;2.73;;
7843;SDS011;3967;48.702;9.326;2022-07-10T05:38:41;4.33;;;2.90;;
7843;SDS011;3967;48.702;9.326;2022-07-10T05:41:08;6.00;;;3.53;;
7843;SDS011;3967;48.702;9.326;2022-07-10T05:43:35;3.80;;;3.20;;
7843;SDS011;3967;48.702;9.326;2022-07-10T05:46:01;4.33;;;3.23;;
7843;SDS011;3967;48.702;9.326;2022-07-10T05:48:28;3.33;;;2.67;;
7843;SDS011;3967;48.702;9.326;2022-07-10T05:50:56;4.13;;;2.70;;
7843;SDS011;3967;48.702;9.326;2022-07-10T05:53:40;3.30;;;3.07;;
7843;SDS011;3967;48.702;9.326;2022-07-10T05:56:07;4.63;;;3.37;;
7843;SDS011;3967;48.702;9.326;2022-07-10T05:58:34;6.73;;;3.40;;
7843;SDS011;3967;48.702;9.326;2022-07-10T06:01:01;5.53;;;3.20;;
7843;SDS011;3967;48.702;9.326;2022-07-10T06:03:28;4.87;;;2.93;;
7843;SDS011;3967;48.702;9.326;2022-07-10T06:05:55;3.47;;;2.77;;
7843;SDS011;3967;48.702;9.326;2022-07-10T06:08:22;3.57;;;2.23;;
7843;SDS011;3967;48.702;9.326;2022-07-10T06:10:48;2.30;;;2.20;;
7843;SDS011;3967;48.702;9.326;2022-07-10T06:13:15;2.40;;;2.20;;
7843;SDS011;3967;48.702;9.326;2022-07-10T06:15:42;2.50;;;1.80;;
7843;SDS011;3967;48.702;9.326;2022-07-10T06:18:09;2.57;;;1.80;;
7843;SDS011;3967;48.702;9.326;2022-07-10T06:20:35;3.00;;;2.00;;
7843;SDS011;3967;48.702;9.326;2022-07-10T06:23:02;4.63;;;1.87;;
7843;SDS011;3967;48.702;9.326;2022-07-10T06:25:29;6.17;;;1.90;;
7843;SDS011;3967;48.702;9.326;2022-07-10T06:27:56;3.47;;;2.03;;
7843;SDS011;3967;48.702;9.326;2022-07-10T06:30:22;2.57;;;1.80;;
7843;SDS011;3967;48.702;9.326;2022-07-10T06:32:49;2.70;;;2.10;;
7843;SDS011;3967;48.702;9.326;2022-07-10T06:35:16;3.07;;;1.90;;
7843;SDS011;3967;48.702;9.326;2022-07-10T06:37:43;1.50;;;1.40;;
7843;SDS011;3967;48.702;9.326;2022-07-10T06:40:11;1.10;;;1.10;;
7843;SDS011;3967;48.702;9.326;2022-07-10T06:42:40;2.40;;;1.20;;
7843;SDS011;3967;48.702;9.326;2022-07-10T06:45:10;2.73;;;1.53;;
7843;SDS011;3967;48.702;9.326;2022-07-10T06:47:36;3.00;;;1.53;;
7843;SDS011;3967;48.702;9.326;2022-07-10T06:50:23;3.10;;;1.57;;
7843;SDS011;3967;48.702;9.326;2022-07-10T06:52:52;2.77;;;1.50;;
7843;SDS011;3967;48.702;9.326;2022-07-10T06:55:19;2.33;;;1.00;;
7843;SDS011;3967;48.702;9.326;2022-07-10T06:57:46;2.10;;;1.23;;
7843;SDS011;3967;48.702;9.326;2022-07-10T07:00:13;2.13;;;1.30;;
7843;SDS011;3967;48.702;9.326;2022-07-10T07:02:41;4.07;;;1.33;;
7843;SDS011;3967;48.702;9.326;2022-07-10T07:05:08;3.90;;;1.50;;
7843;SDS011;3967;48.702;9.326;2022-07-10T07:07:35;1.83;;;1.30;;
7843;SDS011;3967;48.702;9.326;2022-07-10T07:10:03;3.73;;;1.40;;
7843;SDS011;3967;48.702;9.326;2022-07-10T07:12:30;2.80;;;1.70;;
7843;SDS011;3967;48.702;9.326;2022-07-10T07:14:57;2.00;;;1.53;;
7843;SDS011;3967;48.702;9.326;2022-07-10T07:17:23;3.77;;;1.60;;
7843;SDS011;3967;48.702;9.326;2022-07-10T07:20:00;2.57;;;1.20;;
7843;SDS011;3967;48.702;9.326;2022-07-10T07:22:46;1.50;;;1.00;;
7843;SDS011;3967;48.702;9.326;2022-07-10T07:25:32;1.33;;;0.90;;
7843;SDS011;3967;48.702;9.326;2022-07-10T07:27:59;4.37;;;1.40;;
7843;SDS011;3967;48.702;9.326;2022-07-10T07:30:25;1.43;;;1.00;;
7843;SDS011;3967;48.702;9.326;2022-07-10T07:32:52;3.63;;;1.90;;
7843;SDS011;3967;48.702;9.326;2022-07-10T07:35:19;3.47;;;1.10;;
7843;SDS011;3967;48.702;9.326;2022-07-10T07:37:47;1.53;;;1.10;;
7843;SDS011;3967;48.702;9.326;2022-07-10T07:40:15;4.27;;;1.00;;
7843;SDS011;3967;48.702;9.326;2022-07-10T07:42:46;4.13;;;1.03;;
7843;SDS011;3967;48.702;9.326;2022-07-10T07:45:13;4.77;;;1.30;;
7843;SDS011;3967;48.702;9.326;2022-07-10T07:47:46;3.00;;;1.10;;
7843;SDS011;3967;48.702;9.326;2022-07-10T07:50:18;2.63;;;1.00;;
7843;SDS011;3967;48.702;9.326;2022-07-10T07:52:46;2.73;;;1.20;;
7843;SDS011;3967;48.702;9.326;2022-07-10T07:55:15;2.70;;;1.63;;
7843;SDS011;3967;48.702;9.326;2022-07-10T07:57:43;3.93;;;1.77;;
7843;SDS011;3967;48.702;9.326;2022-07-10T08:00:10;4.00;;;1.10;;
7843;SDS011;3967;48.702;9.326;2022-07-10T08:02:39;1.83;;;0.93;;
7843;SDS011;3967;48.702;9.326;2022-07-10T08:05:07;2.13;;;0.93;;
7843;SDS011;3967;48.702;9.326;2022-07-10T08:10:01;1.20;;;1.00;;
7843;SDS011;3967;48.702;9.326;2022-07-10T08:12:28;3.07;;;1.10;;
7843;SDS011;3967;48.702;9.326;2022-07-10T08:14:55;1.40;;;1.00;;
7843;SDS011;3967;48.702;9.326;2022-07-10T08:17:22;2.80;;;1.20;;
7843;SDS011;3967;48.702;9.326;2022-07-10T08:19:49;2.97;;;1.10;;
7843;SDS011;3967;48.702;9.326;2022-07-10T08:22:16;3.17;;;1.27;;
7843;SDS011;3967;48.702;9.326;2022-07-10T08:24:42;2.10;;;1.10;;
7843;SDS011;3967;48.702;9.326;2022-07-10T08:27:09;1.00;;;0.90;;
7843;SDS011;3967;48.702;9.326;2022-07-10T08:29:36;3.13;;;1.20;;
7843;SDS011;3967;48.702;9.326;2022-07-10T08:32:03;1.97;;;0.93;;
7843;SDS011;3967;48.702;9.326;2022-07-10T08:34:31;2.07;;;1.20;;
7843;SDS011;3967;48.702;9.326;2022-07-10T08:36:59;3.40;;;1.67;;
7843;SDS011;3967;48.702;9.326;2022-07-10T08:39:27;1.47;;;1.30;;
7843;SDS011;3967;48.702;9.326;2022-07-10T08:41:53;2.63;;;0.90;;
7843;SDS011;3967;48.702;9.326;2022-07-10T08:44:20;13.40;;;1.30;;
7843;SDS011;3967;48.702;9.326;2022-07-10T08:46:47;2.10;;;0.93;;
7843;SDS011;3967;48.702;9.326;2022-07-10T08:49:14;1.73;;;0.90;;
7843;SDS011;3967;48.702;9.326;2022-07-10T08:52:00;2.47;;;1.20;;
7843;SDS011;3967;48.702;9.326;2022-07-10T08:54:32;3.27;;;1.10;;
7843;SDS011;3967;48.702;9.326;2022-07-10T08:57:00;4.80;;;1.10;;
7843;SDS011;3967;48.702;9.326;2022-07-10T08:59:29;1.77;;;1.13;;
7843;SDS011;3967;48.702;9.326;2022-07-10T09:01:57;1.67;;;1.03;;
7843;SDS011;3967;48.702;9.326;2022-07-10T09:04:25;3.43;;;1.20;;
7843;SDS011;3967;48.702;9.326;2022-07-10T09:06:53;3.33;;;1.10;;
7843;SDS011;3967;48.702;9.326;2022-07-10T09:09:21;3.07;;;1.20;;
7843;SDS011;3967;48.702;9.326;2022-07-10T09:11:54;1.83;;;0.93;;
7843;SDS011;3967;48.702;9.326;2022-07-10T09:14:24;1.20;;;0.80;;
7843;SDS011;3967;48.702;9.326;2022-07-10T09:17:00;2.20;;;1.30;;
7843;SDS011;3967;48.702;9.326;2022-07-10T09:19:28;2.27;;;1.10;;
7843;SDS011;3967;48.702;9.326;2022-07-10T09:24:39;1.87;;;1.07;;
7843;SDS011;3967;48.702;9.326;2022-07-10T09:27:07;3.70;;;1.13;;
7843;SDS011;3967;48.702;9.326;2022-07-10T09:32:13;1.80;;;0.80;;
7843;SDS011;3967;48.702;9.326;2022-07-10T09:34:41;2.23;;;1.13;;
7843;SDS011;3967;48.702;9.326;2022-07-10T09:42:24;4.97;;;1.10;;
7843;SDS011;3967;48.702;9.326;2022-07-10T09:47:37;1.80;;;0.83;;
7843;SDS011;3967;48.702;9.326;2022-07-10T09:50:38;3.63;;;0.80;;
7843;SDS011;3967;48.702;9.326;2022-07-10T09:53:04;1.73;;;0.87;;
7843;SDS011;3967;48.702;9.326;2022-07-10T09:55:33;1.70;;;1.00;;
7843;SDS011;3967;48.702;9.326;2022-07-10T09:58:02;2.43;;;0.93;;
7843;SDS011;3967;48.702;9.326;2022-07-10T10:00:39;2.27;;;1.03;;
7843;SDS011;3967;48.702;9.326;2022-07-10T10:03:12;1.27;;;1.03;;
7843;SDS011;3967;48.702;9.326;2022-07-10T10:10:51;4.30;;;0.90;;
7843;SDS011;3967;48.702;9.326;2022-07-10T10:13:21;2.23;;;0.80;;
7843;SDS011;3967;48.702;9.326;2022-07-10T10:15:50;4.60;;;0.87;;
7843;SDS011;3967;48.702;9.326;2022-07-10T10:18:18;3.20;;;0.80;;
7843;SDS011;3967;48.702;9.326;2022-07-10T10:20:53;2.87;;;0.93;;
7843;SDS011;3967;48.702;9.326;2022-07-10T10:23:24;3.33;;;0.93;;
7843;SDS011;3967;48.702;9.326;2022-07-10T10:25:52;1.60;;;0.70;;
7843;SDS011;3967;48.702;9.326;2022-07-10T10:28:21;3.20;;;0.90;;
7843;SDS011;3967;48.702;9.326;2022-07-10T10:30:55;1.70;;;0.90;;
7843;SDS011;3967;48.702;9.326;2022-07-10T10:36:09;1.90;;;1.00;;
7843;SDS011;3967;48.702;9.326;2022-07-10T10:41:38;2.30;;;0.87;;
7843;SDS011;3967;48.702;9.326;2022-07-10T10:46:33;4.90;;;1.20;;
7843;SDS011;3967;48.702;9.326;2022-07-10T10:49:07;1.67;;;0.90;;
7843;SDS011;3967;48.702;9.326;2022-07-10T11:00:02;1.50;;;0.90;;
7843;SDS011;3967;48.702;9.326;2022-07-10T11:02:33;3.60;;;0.80;;
7843;SDS011;3967;48.702;9.326;2022-07-10T11:07:55;0.87;;;0.80;;
7843;SDS011;3967;48.702;9.326;2022-07-10T11:15:45;2.70;;;0.90;;
7843;SDS011;3967;48.702;9.326;2022-07-10T11:18:14;2.20;;;0.70;;
7843;SDS011;3967;48.702;9.326;2022-07-10T11:26:02;2.10;;;0.73;;
7843;SDS011;3967;48.702;9.326;2022-07-10T11:31:09;2.90;;;1.00;;
7843;SDS011;3967;48.702;9.326;2022-07-10T11:33:43;1.47;;;0.87;;
7843;SDS011;3967;48.702;9.326;2022-07-10T11:36:22;1.93;;;0.70;;
7843;SDS011;3967;48.702;9.326;2022-07-10T11:38:56;1.90;;;0.80;;
7843;SDS011;3967;48.702;9.326;2022-07-10T11:41:27;1.33;;;0.70;;
7843;SDS011;3967;48.702;9.326;2022-07-10T11:43:55;3.73;;;0.90;;
7843;SDS011;3967;48.702;9.326;2022-07-10T11:46:33;2.40;;;0.80;;
7843;SDS011;3967;48.702;9.326;2022-07-10T11:49:04;0.73;;;0.60;;
7843;SDS011;3967;48.702;9.326;2022-07-10T11:51:33;2.27;;;0.70;;
7843;SDS011;3967;48.702;9.326;2022-07-10T11:54:02;2.70;;;0.97;;
7843;SDS011;3967;48.702;9.326;2022-07-10T11:56:34;2.63;;;0.80;;
7843;SDS011;3967;48.702;9.326;2022-07-10T11:59:03;1.53;;;0.70;;
7843;SDS011;3967;48.702;9.326;2022-07-10T12:01:31;1.90;;;1.13;;
7843;SDS011;3967;48.702;9.326;2022-07-10T12:04:06;1.43;;;0.60;;
7843;SDS011;3967;48.702;9.326;2022-07-10T12:06:38;1.40;;;0.60;;
7843;SDS011;3967;48.702;9.326;2022-07-10T12:09:14;1.70;;;0.47;;
7843;SDS011;3967;48.702;9.326;2022-07-10T12:11:42;2.93;;;0.63;;
7843;SDS011;3967;48.702;9.326;2022-07-10T12:16:41;2.70;;;0.80;;
7843;SDS011;3967;48.702;9.326;2022-07-10T12:19:19;2.03;;;0.90;;
7843;SDS011;3967;48.702;9.326;2022-07-10T12:21:57;1.07;;;0.63;;
7843;SDS011;3967;48.702;9.326;2022-07-10T12:24:25;1.57;;;0.70;;
7843;SDS011;3967;48.702;9.326;2022-07-10T12:26:52;1.40;;;0.80;;
7843;SDS011;3967;48.702;9.326;2022-07-10T12:29:22;1.27;;;0.60;;
7843;SDS011;3967;48.702;9.326;2022-07-10T12:31:57;1.37;;;0.60;;
7843;SDS011;3967;48.702;9.326;2022-07-10T12:34:40;1.50;;;0.50;;
7843;SDS011;3967;48.702;9.326;2022-07-10T12:37:13;2.57;;;0.50;;
7843;SDS011;3967;48.702;9.326;2022-07-10T12:39:47;1.00;;;0.50;;
7843;SDS011;3967;48.702;9.326;2022-07-10T12:42:26;2.77;;;0.70;;
7843;SDS011;3967;48.702;9.326;2022-07-10T12:45:09;1.60;;;0.50;;
7843;SDS011;3967;48.702;9.326;2022-07-10T12:47:43;2.40;;;0.60;;
7843;SDS011;3967;48.702;9.326;2022-07-10T12:50:12;1.57;;;0.60;;
7843;SDS011;3967;48.702;9.326;2022-07-10T12:52:40;4.80;;;0.67;;
7843;SDS011;3967;48.702;9.326;2022-07-10T13:00:20;2.87;;;0.40;;
7843;SDS011;3967;48.702;9.326;2022-07-10T13:02:50;2.23;;;0.50;;
7843;SDS011;3967;48.702;9.326;2022-07-10T13:05:25;1.27;;;0.60;;
7843;SDS011;3967;48.702;9.326;2022-07-10T13:08:03;2.20;;;0.70;;
7843;SDS011;3967;48.702;9.326;2022-07-10T13:10:47;2.80;;;0.70;;
7843;SDS011;3967;48.702;9.326;2022-07-10T13:13:27;3.03;;;0.77;;
7843;SDS011;3967;48.702;9.326;2022-07-10T13:15:57;1.13;;;0.67;;
7843;SDS011;3967;48.702;9.326;2022-07-10T13:18:27;1.90;;;0.40;;
7843;SDS011;3967;48.702;9.326;2022-07-10T13:20:54;2.73;;;0.70;;
7843;SDS011;3967;48.702;9.326;2022-07-10T13:23:27;1.27;;;0.80;;
7843;SDS011;3967;48.702;9.326;2022-07-10T13:25:57;1.47;;;0.53;;
7843;SDS011;3967;48.702;9.326;2022-07-10T13:28:27;2.53;;;0.53;;
7843;SDS011;3967;48.702;9.326;2022-07-10T13:30:54;1.90;;;0.60;;
7843;SDS011;3967;48.702;9.326;2022-07-10T13:33:21;1.37;;;0.60;;
7843;SDS011;3967;48.702;9.326;2022-07-10T13:35:50;2.37;;;0.63;;
7843;SDS011;3967;48.702;9.326;2022-07-10T13:38:17;0.60;;;0.40;;
7843;SDS011;3967;48.702;9.326;2022-07-10T13:40:44;1.10;;;0.50;;
7843;SDS011;3967;48.702;9.326;2022-07-10T13:43:14;3.47;;;0.70;;
7843;SDS011;3967;48.702;9.326;2022-07-10T13:45:43;2.03;;;0.60;;
7843;SDS011;3967;48.702;9.326;2022-07-10T13:48:13;1.00;;;0.40;;
7843;SDS011;3967;48.702;9.326;2022-07-10T13:50:42;1.63;;;0.50;;
7843;SDS011;3967;48.702;9.326;2022-07-10T13:53:10;2.60;;;0.40;;
7843;SDS011;3967;48.702;9.326;2022-07-10T13:55:37;2.60;;;0.60;;
7843;SDS011;3967;48.702;9.326;2022-07-10T13:58:04;1.33;;;0.60;;
7843;SDS011;3967;48.702;9.326;2022-07-10T14:00:31;2.67;;;0.40;;
7843;SDS011;3967;48.702;9.326;2022-07-10T14:02:57;0.77;;;0.50;;
7843;SDS011;3967;48.702;9.326;2022-07-10T14:05:26;1.27;;;0.50;;
7843;SDS011;3967;48.702;9.326;2022-07-10T14:07:54;1.23;;;0.40;;
7843;SDS011;3967;48.702;9.326;2022-07-10T14:10:21;1.17;;;0.50;;
7843;SDS011;3967;48.702;9.326;2022-07-10T14:12:48;0.70;;;0.40;;
7843;SDS011;3967;48.702;9.326;2022-07-10T14:15:15;0.57;;;0.40;;
7843;SDS011;3967;48.702;9.326;2022-07-10T14:17:42;2.50;;;0.50;;
7843;SDS011;3967;48.702;9.326;2022-07-10T14:20:10;2.23;;;0.70;;
7843;SDS011;3967;48.702;9.326;2022-07-10T14:22:37;2.57;;;0.40;;
7843;SDS011;3967;48.702;9.326;2022-07-10T14:25:05;3.40;;;0.50;;
7843;SDS011;3967;48.702;9.326;2022-07-10T14:27:32;2.00;;;0.67;;
7843;SDS011;3967;48.702;9.326;2022-07-10T14:29:59;1.17;;;0.40;;
7843;SDS011;3967;48.702;9.326;2022-07-10T14:32:26;3.77;;;0.60;;
7843;SDS011;3967;48.702;9.326;2022-07-10T14:34:52;0.80;;;0.43;;
7843;SDS011;3967;48.702;9.326;2022-07-10T14:37:19;0.90;;;0.40;;
7843;SDS011;3967;48.702;9.326;2022-07-10T14:39:48;1.73;;;0.50;;
7843;SDS011;3967;48.702;9.326;2022-07-10T14:42:15;1.03;;;0.60;;
7843;SDS011;3967;48.702;9.326;2022-07-10T14:44:42;1.87;;;0.50;;
7843;SDS011;3967;48.702;9.326;2022-07-10T14:47:08;1.90;;;0.40;;
7843;SDS011;3967;48.702;9.326;2022-07-10T14:49:35;1.17;;;0.43;;
7843;SDS011;3967;48.702;9.326;2022-07-10T14:52:02;2.20;;;0.40;;
7843;SDS011;3967;48.702;9.326;2022-07-10T14:54:30;1.37;;;0.60;;
7843;SDS011;3967;48.702;9.326;2022-07-10T14:56:57;2.00;;;0.53;;
7843;SDS011;3967;48.702;9.326;2022-07-10T14:59:29;2.30;;;0.50;;
7843;SDS011;3967;48.702;9.326;2022-07-10T15:01:56;1.57;;;0.40;;
7843;SDS011;3967;48.702;9.326;2022-07-10T15:04:22;0.53;;;0.20;;
7843;SDS011;3967;48.702;9.326;2022-07-10T15:06:49;0.63;;;0.30;;
7843;SDS011;3967;48.702;9.326;2022-07-10T15:09:16;0.50;;;0.23;;
7843;SDS011;3967;48.702;9.326;2022-07-10T15:11:43;0.73;;;0.40;;
7843;SDS011;3967;48.702;9.326;2022-07-10T15:14:09;1.50;;;0.47;;
7843;SDS011;3967;48.702;9.326;2022-07-10T15:16:36;1.60;;;0.30;;
7843;SDS011;3967;48.702;9.326;2022-07-10T15:19:03;1.17;;;0.30;;
7843;SDS011;3967;48.702;9.326;2022-07-10T15:21:30;1.70;;;0.50;;
7843;SDS011;3967;48.702;9.326;2022-07-10T15:23:57;3.83;;;0.40;;
7843;SDS011;3967;48.702;9.326;2022-07-10T15:26:24;0.80;;;0.33;;
7843;SDS011;3967;48.702;9.326;2022-07-10T15:28:50;1.30;;;0.40;;
7843;SDS011;3967;48.702;9.326;2022-07-10T15:31:17;2.67;;;0.50;;
7843;SDS011;3967;48.702;9.326;2022-07-10T15:33:44;1.10;;;0.40;;
7843;SDS011;3967;48.702;9.326;2022-07-10T15:36:12;0.87;;;0.40;;
7843;SDS011;3967;48.702;9.326;2022-07-10T15:38:39;2.17;;;0.37;;
7843;SDS011;3967;48.702;9.326;2022-07-10T15:41:07;0.97;;;0.43;;
7843;SDS011;3967;48.702;9.326;2022-07-10T15:43:34;2.37;;;0.73;;
7843;SDS011;3967;48.702;9.326;2022-07-10T15:46:01;2.07;;;0.50;;
7843;SDS011;3967;48.702;9.326;2022-07-10T15:48:28;2.33;;;0.50;;
7843;SDS011;3967;48.702;9.326;2022-07-10T15:50:55;1.17;;;0.40;;
7843;SDS011;3967;48.702;9.326;2022-07-10T15:53:22;0.67;;;0.30;;
7843;SDS011;3967;48.702;9.326;2022-07-10T15:55:48;1.70;;;0.40;;
7843;SDS011;3967;48.702;9.326;2022-07-10T15:58:15;1.30;;;0.40;;
7843;SDS011;3967;48.702;9.326;2022-07-10T16:00:42;0.50;;;0.30;;
7843;SDS011;3967;48.702;9.326;2022-07-10T16:03:09;3.00;;;0.60;;
7843;SDS011;3967;48.702;9.326;2022-07-10T16:05:36;0.70;;;0.33;;
7843;SDS011;3967;48.702;9.326;2022-07-10T16:08:03;3.07;;;0.40;;
7843;SDS011;3967;48.702;9.326;2022-07-10T16:10:31;1.40;;;0.53;;
7843;SDS011;3967;48.702;9.326;2022-07-10T16:12:58;0.93;;;0.30;;
7843;SDS011;3967;48.702;9.326;2022-07-10T16:15:25;3.07;;;0.50;;
7843;SDS011;3967;48.702;9.326;2022-07-10T16:17:51;0.70;;;0.40;;
7843;SDS011;3967;48.702;9.326;2022-07-10T16:20:18;1.47;;;0.40;;
7843;SDS011;3967;48.702;9.326;2022-07-10T16:22:45;2.33;;;0.50;;